Time;durP1;ratioP1;P1;durP2;ratioP2;P2;SDS_P1;SDS_P2;PMS_P1;PMS_P2;Temp;Humidity;BMP_temperature;BMP_pressure;BME280_temperature;BME280_humidity;BME280_pressure;Samples;Min_cycle;Max_cycle;Signal;HPM_P1;HPM_P2
2021/09/27 00:01:37;;;;;;;11.60;7.50;;;;;;;13.21;88.57;97012.23;115500;1191;36792;-87
2021/09/27 00:04:08;;;;;;;9.10;6.80;;;;;;;13.14;88.95;97010.02;115522;1197;27710;-88
2021/09/27 00:06:39;;;;;;;10.50;7.10;;;;;;;13.12;89.23;97006.96;115499;1198;25167;-88
2021/09/27 00:09:10;;;;;;;9.40;7.00;;;;;;;13.17;89.18;97006.63;115500;1198;26053;-88
2021/09/27 00:11:40;;;;;;;8.80;6.50;;;;;;;13.19;88.64;97002.90;115545;1198;25429;-87
2021/09/27 00:14:11;;;;;;;9.60;7.30;;;;;;;13.20;88.63;97008.36;115701;1198;22439;-87
2021/09/27 00:16:43;;;;;;;10.50;7.20;;;;;;;13.22;88.96;97010.27;115444;1198;27020;-88
2021/09/27 00:19:14;;;;;;;12.20;7.70;;;;;;;13.14;88.53;97010.46;115485;1198;27870;-87
2021/09/27 00:21:43;;;;;;;;;;;;;;;12.95;88.23;97010.23;115597;1197;28971;-89
2021/09/27 00:24:14;;;;;;;10.20;7.90;;;;;;;12.81;88.73;97007.95;115496;1193;46149;-88
2021/09/27 00:26:45;;;;;;;9.70;7.50;;;;;;;12.83;89.18;97008.18;115451;1193;27028;-88
2021/09/27 00:29:16;;;;;;;13.80;8.40;;;;;;;12.87;89.30;97003.56;115499;1198;26169;-88
2021/09/27 00:31:47;;;;;;;12.10;7.30;;;;;;;12.83;89.15;97003.08;115494;1198;25365;-88
2021/09/27 00:34:18;;;;;;;9.60;7.30;;;;;;;12.86;89.39;97003.73;115471;1197;27111;-87
2021/09/27 00:36:49;;;;;;;10.80;7.50;;;;;;;12.93;90.58;97006.58;115442;1197;28034;-87
2021/09/27 00:39:19;;;;;;;8.70;7.10;;;;;;;12.96;90.37;97002.56;115509;1197;29191;-86
2021/09/27 00:41:50;;;;;;;9.80;7.00;;;;;;;12.84;89.87;96995.71;115483;1198;27994;-87
2021/09/27 00:44:21;;;;;;;9.90;6.70;;;;;;;12.83;90.08;96992.07;115572;1198;26364;-87
2021/09/27 00:46:53;;;;;;;8.90;6.70;;;;;;;12.84;89.83;96992.90;115500;1198;38965;-87
2021/09/27 00:49:23;;;;;;;8.90;7.00;;;;;;;12.90;89.99;96996.39;115503;1197;27081;-88
2021/09/27 00:51:54;;;;;;;8.80;7.00;;;;;;;12.95;89.66;96999.53;115550;1198;28738;-87
2021/09/27 00:54:31;;;;;;;8.70;7.10;;;;;;;12.89;89.30;96999.97;115487;1198;24562;-87
2021/09/27 00:57:06;;;;;;;10.40;7.30;;;;;;;12.77;89.28;96995.73;115516;1197;27293;-88
2021/09/27 00:59:40;;;;;;;8.80;7.10;;;;;;;12.76;89.56;96996.55;115521;1197;33288;-87
2021/09/27 01:02:13;;;;;;;10.00;7.50;;;;;;;12.79;89.63;96988.31;115532;1192;27038;-88
2021/09/27 01:04:44;;;;;;;9.30;6.90;;;;;;;12.82;89.93;96991.34;115457;1198;27738;-89
2021/09/27 01:07:26;;;;;;;9.50;7.10;;;;;;;12.84;90.42;96989.08;115604;1197;27502;-85
2021/09/27 01:10:16;;;;;;;10.10;7.50;;;;;;;12.86;90.55;96985.64;115559;1197;25261;-85
2021/09/27 01:13:03;;;;;;;8.70;6.80;;;;;;;12.92;90.75;96988.27;115528;1191;29453;-86
2021/09/27 01:15:44;;;;;;;10.00;7.10;;;;;;;12.95;90.46;96989.05;115452;1193;31016;-87
2021/09/27 01:18:25;;;;;;;11.20;6.60;;;;;;;13.00;90.22;96989.58;115435;1198;24359;-87
2021/09/27 01:21:08;;;;;;;9.80;7.20;;;;;;;12.99;89.84;96989.06;115404;1198;25735;-87
2021/09/27 01:24:09;;;;;;;8.70;6.50;;;;;;;12.91;89.55;96991.37;115553;1194;23689;-87
2021/09/27 01:27:05;;;;;;;11.60;8.00;;;;;;;12.87;89.28;96988.55;115635;1198;27578;-88
2021/09/27 01:29:57;;;;;;;9.30;6.90;;;;;;;12.78;89.26;96987.73;115464;1197;27133;-88
2021/09/27 01:32:37;;;;;;;9.50;6.70;;;;;;;12.79;89.23;96984.95;115441;1198;25465;-87
2021/09/27 01:35:27;;;;;;;9.90;6.70;;;;;;;12.77;89.19;96984.77;115532;1197;26854;-87
2021/09/27 01:38:11;;;;;;;10.70;7.20;;;;;;;12.74;89.17;96988.05;115498;1197;30879;-87
2021/09/27 01:40:55;;;;;;;7.60;6.20;;;;;;;12.78;89.38;96988.91;115547;1198;29801;-85
2021/09/27 01:43:31;;;;;;;9.60;6.90;;;;;;;12.81;89.30;96987.83;115528;1198;29091;-87
2021/09/27 01:46:07;;;;;;;9.80;7.00;;;;;;;12.81;89.13;96989.27;115400;1199;26551;-87
2021/09/27 01:48:45;;;;;;;9.10;6.90;;;;;;;12.81;89.03;96989.64;115485;1197;25323;-87
2021/09/27 01:51:24;;;;;;;8.90;6.20;;;;;;;12.75;89.19;96991.49;115426;1198;28398;-87
2021/09/27 01:54:01;;;;;;;9.20;6.50;;;;;;;12.58;88.97;96995.61;115434;1198;26536;-87
2021/09/27 01:56:40;;;;;;;7.60;6.30;;;;;;;12.39;89.52;96992.12;115491;1184;25149;-87
2021/09/27 01:59:19;;;;;;;10.20;7.00;;;;;;;12.27;90.40;96983.52;115531;1197;25947;-88
2021/09/27 02:01:58;;;;;;;8.80;6.80;;;;;;;12.29;90.73;96982.39;115507;1198;26486;-87
2021/09/27 02:04:37;;;;;;;9.20;6.80;;;;;;;12.33;91.07;96981.43;115507;1198;27559;-88
2021/09/27 02:07:09;;;;;;;8.70;6.50;;;;;;;12.41;91.42;96981.30;115612;1192;26119;-87
2021/09/27 02:09:49;;;;;;;8.70;6.50;;;;;;;12.50;91.42;96979.30;115536;1198;26766;-88
2021/09/27 02:12:25;;;;;;;9.40;7.20;;;;;;;12.53;91.02;96971.56;115450;1198;25347;-87
2021/09/27 02:15:02;;;;;;;10.50;7.10;;;;;;;12.47;90.96;96973.33;115477;1198;28642;-87
2021/09/27 02:17:40;;;;;;;10.20;7.00;;;;;;;12.38;91.16;96976.55;115561;1198;26369;-87
2021/09/27 02:20:18;;;;;;;11.10;6.60;;;;;;;12.29;91.40;96971.63;115616;1197;27175;-87
2021/09/27 02:22:54;;;;;;;10.90;7.40;;;;;;;12.20;91.26;96972.30;115561;1184;26315;-86
2021/09/27 02:25:31;;;;;;;10.70;7.50;;;;;;;12.09;91.40;96974.57;115562;1197;28105;-87
2021/09/27 02:28:05;;;;;;;11.20;8.10;;;;;;;12.07;92.12;96976.23;115626;1197;25935;-87
2021/09/27 02:30:42;;;;;;;9.20;6.70;;;;;;;12.08;92.44;96973.50;115643;1197;27198;-86
2021/09/27 02:33:20;;;;;;;11.80;6.90;;;;;;;12.08;91.93;96974.04;115442;1196;38164;-87
2021/09/27 02:35:56;;;;;;;11.10;7.00;;;;;;;12.08;91.84;96969.36;115515;1197;28380;-87
2021/09/27 02:38:36;;;;;;;8.00;6.80;;;;;;;12.12;91.95;96969.18;115496;1193;27358;-88
2021/09/27 02:41:22;;;;;;;9.50;6.90;;;;;;;12.10;91.83;96969.89;115413;1197;30146;-87
2021/09/27 02:43:53;;;;;;;10.40;7.20;;;;;;;11.95;91.19;96971.65;115488;1197;34209;-88
2021/09/27 02:46:24;;;;;;;8.70;7.10;;;;;;;11.83;91.01;96969.78;115476;1197;26043;-87
2021/09/27 02:48:57;;;;;;;8.90;7.10;;;;;;;11.76;91.15;96969.42;115596;1197;25468;-87
2021/09/27 02:51:29;;;;;;;9.30;7.20;;;;;;;11.75;91.64;96971.71;115586;1197;26170;-87
2021/09/27 02:54:00;;;;;;;9.30;6.70;;;;;;;11.83;91.97;96968.66;115571;1182;27033;-87
2021/09/27 02:56:37;;;;;;;;;;;;;;;11.92;91.74;96970.77;115605;1197;34196;-88
2021/09/27 02:59:17;;;;;;;9.30;6.60;;;;;;;11.99;91.67;96969.93;115416;1198;29978;-88
2021/09/27 03:01:57;;;;;;;9.10;7.20;;;;;;;11.99;91.85;96973.27;115499;1198;29691;-87
2021/09/27 03:04:45;;;;;;;9.50;7.00;;;;;;;11.93;92.10;96974.21;115530;1197;25117;-87
2021/09/27 03:07:26;;;;;;;9.60;6.90;;;;;;;11.94;91.98;96969.73;115614;1197;24955;-87
2021/09/27 03:10:04;;;;;;;7.70;5.90;;;;;;;11.97;91.68;96964.20;115438;1184;25629;-87
2021/09/27 03:12:45;;;;;;;8.30;6.40;;;;;;;12.01;91.30;96960.77;115503;1197;25028;-87
2021/09/27 03:15:49;;;;;;;9.80;6.80;;;;;;;12.04;91.22;96961.64;115515;1197;29048;-87
2021/09/27 03:18:29;;;;;;;8.30;6.70;;;;;;;12.08;91.45;96965.53;115489;1198;26523;-87
2021/09/27 03:21:16;;;;;;;8.30;6.30;;;;;;;11.98;91.43;96965.15;115476;1197;27105;-87
2021/09/27 03:23:58;;;;;;;8.70;6.50;;;;;;;11.86;91.49;96966.89;115577;1198;27638;-87
2021/09/27 03:26:48;;;;;;;8.10;6.10;;;;;;;11.82;91.32;96961.77;115467;1198;31902;-87
2021/09/27 03:29:33;;;;;;;8.80;6.90;;;;;;;11.80;91.29;96960.70;115474;1198;26669;-87
2021/09/27 03:32:19;;;;;;;8.30;6.40;;;;;;;11.81;91.65;96958.95;115463;1198;25176;-87
2021/09/27 03:35:03;;;;;;;8.80;6.20;;;;;;;11.85;91.58;96960.90;115500;1198;25950;-87
2021/09/27 03:37:45;;;;;;;9.20;7.00;;;;;;;11.85;91.60;96955.15;115640;1197;27464;-87
2021/09/27 03:40:34;;;;;;;8.90;6.80;;;;;;;11.91;92.05;96955.05;115511;1197;30069;-87
2021/09/27 03:43:13;;;;;;;6.60;5.50;;;;;;;12.01;92.70;96949.40;115523;1198;26027;-87
2021/09/27 03:45:52;;;;;;;8.10;6.70;;;;;;;12.01;92.60;96946.10;115440;1197;27192;-87
2021/09/27 03:48:31;;;;;;;8.00;6.90;;;;;;;12.02;92.51;96943.80;115488;1198;26624;-87
2021/09/27 03:51:08;;;;;;;9.70;6.40;;;;;;;12.00;92.11;96942.66;115553;1192;27702;-87
2021/09/27 03:53:44;;;;;;;7.20;6.00;;;;;;;12.01;91.84;96943.08;115570;1192;24758;-87
2021/09/27 03:56:21;;;;;;;8.80;5.80;;;;;;;12.03;91.68;96942.20;115481;1190;26783;-87
2021/09/27 03:58:58;;;;;;;7.30;6.20;;;;;;;12.01;91.48;96938.34;115515;1198;26528;-87
2021/09/27 04:01:38;;;;;;;7.20;5.80;;;;;;;11.99;91.28;96933.05;115484;1198;24918;-87
2021/09/27 04:04:43;;;;;;;7.30;5.40;;;;;;;11.94;91.52;96935.95;115591;1197;25447;-87
2021/09/27 04:07:23;;;;;;;5.60;4.80;;;;;;;11.92;91.59;96936.92;115462;1198;26982;-86
2021/09/27 04:10:05;;;;;;;8.30;5.80;;;;;;;11.94;91.63;96935.73;115545;1198;25604;-87
2021/09/27 04:12:46;;;;;;;9.50;6.00;;;;;;;12.00;91.64;96936.07;115436;1198;26474;-87
2021/09/27 04:15:32;;;;;;;7.00;5.60;;;;;;;12.03;91.43;96936.67;115506;1198;26889;-87
2021/09/27 04:18:14;;;;;;;7.10;5.60;;;;;;;12.04;91.24;96934.64;115518;1198;24474;-87
2021/09/27 04:21:04;;;;;;;6.40;5.70;;;;;;;12.04;91.11;96937.56;115493;1198;30302;-87
2021/09/27 04:23:57;;;;;;;7.00;6.10;;;;;;;12.06;91.17;96936.96;115449;1192;28039;-86
2021/09/27 04:26:41;;;;;;;6.70;5.50;;;;;;;12.07;90.99;96934.62;115447;1198;25098;-88
2021/09/27 04:29:26;;;;;;;8.30;6.10;;;;;;;12.04;90.65;96938.21;115606;1197;25985;-87
2021/09/27 04:32:09;;;;;;;11.10;6.50;;;;;;;11.95;90.41;96941.41;115460;1198;43496;-88
2021/09/27 04:35:06;;;;;;;7.00;6.00;;;;;;;11.90;90.55;96944.95;115552;1197;25460;-87
2021/09/27 04:37:38;;;;;;;7.80;6.00;;;;;;;11.86;90.50;96945.00;115477;1197;26786;-87
2021/09/27 04:40:12;;;;;;;7.60;5.50;;;;;;;11.88;90.67;96947.95;115581;1197;29929;-88
2021/09/27 04:43:22;;;;;;;21.90;6.10;;;;;;;11.95;90.66;96951.55;115520;1198;27532;-87
2021/09/27 04:46:06;;;;;;;10.20;5.50;;;;;;;11.75;89.56;96959.04;115495;1198;25199;-87
2021/09/27 04:48:56;;;;;;;5.80;5.00;;;;;;;11.62;89.57;96963.09;115426;1197;27956;-87
2021/09/27 04:51:41;;;;;;;10.30;4.00;;;;;;;11.67;89.72;96963.31;115567;1197;25246;-87
2021/09/27 04:54:42;;;;;;;6.50;4.50;;;;;;;11.59;89.25;96966.77;115588;1198;27364;-87
2021/09/27 04:57:26;;;;;;;4.90;4.10;;;;;;;11.48;89.11;96967.58;115443;1198;25547;-87
2021/09/27 05:00:11;;;;;;;5.10;4.50;;;;;;;11.56;89.74;96969.35;115465;1198;29559;-86
2021/09/27 05:03:07;;;;;;;8.20;4.00;;;;;;;11.73;89.71;96966.63;115532;1198;28245;-87
2021/09/27 05:05:57;;;;;;;7.80;4.00;;;;;;;11.69;88.96;96969.00;115603;1191;26975;-87
2021/09/27 05:08:48;;;;;;;7.30;4.80;;;;;;;11.62;88.97;96971.48;115498;1197;27050;-87
2021/09/27 05:11:36;;;;;;;8.90;5.20;;;;;;;11.65;89.27;96972.20;115407;1197;27490;-86
2021/09/27 05:14:30;;;;;;;13.10;4.80;;;;;;;11.69;89.56;96972.35;115490;1198;25920;-87
2021/09/27 05:17:15;;;;;;;25.40;6.40;;;;;;;11.63;89.91;96970.89;115539;1197;29617;-87
2021/09/27 05:20:06;;;;;;;12.80;5.80;;;;;;;11.59;90.28;96968.48;115442;1198;33731;-87
2021/09/27 05:22:58;;;;;;;11.70;5.00;;;;;;;11.60;90.66;96974.20;115471;1193;31347;-87
2021/09/27 05:25:47;;;;;;;7.90;4.90;;;;;;;11.72;90.87;96970.02;115482;1198;27599;-87
2021/09/27 05:28:40;;;;;;;10.80;5.00;;;;;;;11.95;91.26;96963.46;115533;1197;27436;-87
2021/09/27 05:31:31;;;;;;;7.50;4.70;;;;;;;12.37;91.62;96962.57;115547;1198;25339;-87
2021/09/27 05:34:12;;;;;;;9.90;5.70;;;;;;;12.93;91.44;96959.85;115564;1197;29134;-87
2021/09/27 05:37:04;;;;;;;9.00;6.60;;;;;;;13.45;90.64;96962.79;115439;1198;27129;-86
2021/09/27 05:39:55;;;;;;;7.80;5.60;;;;;;;14.29;90.71;96965.17;115508;1197;25086;-88
2021/09/27 05:42:39;;;;;;;5.70;4.90;;;;;;;14.99;88.88;96964.40;115420;1198;27724;-87
2021/09/27 05:45:23;;;;;;;5.30;3.90;;;;;;;15.34;87.23;96967.38;115520;1198;27138;-87
2021/09/27 05:48:02;;;;;;;5.00;4.40;;;;;;;15.71;85.90;96972.52;115523;1198;26225;-88
2021/09/27 05:50:45;;;;;;;6.00;4.50;;;;;;;15.86;84.65;96968.58;115480;1197;24798;-87
2021/09/27 05:53:24;;;;;;;5.30;4.10;;;;;;;15.95;83.89;96974.77;115545;1198;28646;-87
2021/09/27 05:56:03;;;;;;;3.60;3.30;;;;;;;15.91;82.83;96971.26;115431;1198;26278;-89
2021/09/27 05:58:40;;;;;;;3.80;3.40;;;;;;;15.90;82.50;96973.89;115506;1197;25880;-87
2021/09/27 06:01:19;;;;;;;4.60;3.40;;;;;;;16.68;83.89;96972.02;115562;1197;37923;-87
2021/09/27 06:04:04;;;;;;;3.60;3.20;;;;;;;17.59;82.42;96967.40;115554;1197;27421;-88
2021/09/27 06:06:39;;;;;;;3.60;3.20;;;;;;;18.58;81.42;96973.52;115471;1197;33752;-88
2021/09/27 06:09:37;;;;;;;2.80;2.50;;;;;;;19.71;79.92;96970.23;115592;1197;30312;-87
2021/09/27 06:12:21;;;;;;;3.70;2.60;;;;;;;20.88;77.91;96967.69;115535;1197;29683;-88
2021/09/27 06:14:56;;;;;;;3.40;3.10;;;;;;;22.12;76.17;96963.21;115439;1198;25055;-88
2021/09/27 06:17:44;;;;;;;3.30;3.00;;;;;;;22.72;72.74;96966.81;115378;1197;25475;-88
2021/09/27 06:20:19;;;;;;;5.50;4.20;;;;;;;22.68;70.04;96965.86;115486;1198;29136;-87
2021/09/27 06:23:28;;;;;;;5.50;4.10;;;;;;;22.19;68.64;96963.19;115508;1197;24846;-87
2021/09/27 06:26:06;;;;;;;5.30;4.60;;;;;;;21.56;67.39;96960.82;115429;1198;27401;-87
2021/09/27 06:28:48;;;;;;;4.90;4.20;;;;;;;21.45;67.36;96965.89;115516;1198;26065;-87
2021/09/27 06:31:25;;;;;;;5.10;4.50;;;;;;;21.70;67.18;96968.63;115477;1198;27043;-87
2021/09/27 06:34:03;;;;;;;7.40;4.60;;;;;;;22.00;66.49;96967.57;115394;1198;30397;-87
2021/09/27 06:36:35;;;;;;;5.20;4.00;;;;;;;22.91;67.23;96965.02;115503;1198;26871;-88
2021/09/27 06:39:14;;;;;;;5.10;4.60;;;;;;;24.06;66.41;96959.44;115525;1197;30845;-88
2021/09/27 06:41:51;;;;;;;4.30;3.90;;;;;;;24.65;64.00;96961.02;115633;1197;24775;-88
2021/09/27 06:44:24;;;;;;;5.20;4.30;;;;;;;25.15;62.91;96958.98;115539;1198;28616;-89
2021/09/27 06:46:55;;;;;;;4.70;4.00;;;;;;;25.93;62.38;96958.39;115447;1191;26710;-88
2021/09/27 06:49:26;;;;;;;4.40;4.00;;;;;;;26.50;61.09;96959.83;115445;1198;25400;-88
2021/09/27 06:51:57;;;;;;;5.00;4.30;;;;;;;27.14;59.81;96961.89;115449;1192;24268;-89
2021/09/27 06:54:28;;;;;;;4.80;4.10;;;;;;;27.49;58.26;96963.45;115510;1198;28555;-88
2021/09/27 06:56:59;;;;;;;4.50;3.60;;;;;;;27.66;56.64;96961.88;115564;1193;26427;-88
2021/09/27 06:59:30;;;;;;;4.60;4.10;;;;;;;27.36;54.74;96959.09;115445;1198;26918;-88
2021/09/27 07:02:00;;;;;;;4.80;4.40;;;;;;;27.24;55.21;96962.67;115469;1193;26508;-88
2021/09/27 07:04:32;;;;;;;5.00;3.80;;;;;;;27.49;54.33;96961.98;115467;1197;31367;-88
2021/09/27 07:07:03;;;;;;;5.70;4.40;;;;;;;27.68;53.51;96962.27;115410;1198;36900;-88
2021/09/27 07:09:35;;;;;;;5.30;4.30;;;;;;;27.55;52.25;96964.52;115451;1194;25657;-88
2021/09/27 07:12:06;;;;;;;6.10;4.60;;;;;;;27.69;52.71;96958.23;115420;1198;26406;-88
2021/09/27 07:14:37;;;;;;;4.30;3.90;;;;;;;27.90;51.78;96960.52;115535;1197;25535;-88
2021/09/27 07:17:08;;;;;;;5.20;4.30;;;;;;;28.60;52.59;96958.63;115542;1193;25833;-88
2021/09/27 07:19:41;;;;;;;5.90;4.60;;;;;;;29.47;52.12;96950.94;115357;1197;30912;-88
2021/09/27 07:22:12;;;;;;;5.10;3.80;;;;;;;30.37;51.29;96952.34;115429;1198;32992;-88
2021/09/27 07:24:43;;;;;;;6.50;4.00;;;;;;;31.27;49.96;96952.98;115564;1198;25664;-88
2021/09/27 07:27:13;;;;;;;6.10;4.00;;;;;;;31.78;48.93;96955.06;115596;1190;24335;-86
2021/09/27 07:29:44;;;;;;;4.50;3.90;;;;;;;31.96;47.35;96949.77;115474;1198;29965;-87
2021/09/27 07:32:15;;;;;;;5.30;3.90;;;;;;;31.91;47.64;96954.37;115513;1197;28647;-89
2021/09/27 07:34:46;;;;;;;5.30;4.30;;;;;;;32.16;46.96;96953.51;115494;1197;25468;-86
2021/09/27 07:37:17;;;;;;;5.20;4.20;;;;;;;31.87;46.54;96953.48;115431;1198;31173;-88
2021/09/27 07:39:48;;;;;;;5.40;4.40;;;;;;;31.33;45.63;96953.08;115432;1198;25924;-88
2021/09/27 07:42:18;;;;;;;5.90;4.20;;;;;;;30.96;46.70;96949.16;115520;1197;30456;-87
2021/09/27 07:44:49;;;;;;;5.50;4.10;;;;;;;30.79;46.87;96949.14;115537;1192;29237;-88
2021/09/27 07:47:20;;;;;;;6.30;4.70;;;;;;;29.99;45.39;96945.46;115477;1197;32499;-88
2021/09/27 07:49:51;;;;;;;5.50;4.30;;;;;;;28.16;45.87;96949.14;115445;1198;27024;-88
2021/09/27 07:52:21;;;;;;;6.80;4.80;;;;;;;27.20;47.16;96952.59;115415;1197;26628;-88
2021/09/27 07:54:52;;;;;;;6.10;4.80;;;;;;;25.92;47.79;96949.21;115569;1197;26951;-88
2021/09/27 07:57:23;;;;;;;6.10;5.20;;;;;;;24.89;50.04;96954.68;115589;1193;25745;-88
2021/09/27 07:59:54;;;;;;;6.50;5.70;;;;;;;24.79;51.53;96953.20;115395;1198;26038;-87
2021/09/27 08:02:28;;;;;;;7.80;5.70;;;;;;;24.69;52.54;96950.27;115583;1197;30646;-87
2021/09/27 08:04:59;;;;;;;7.30;6.20;;;;;;;25.02;53.28;96948.01;115635;1197;30343;-88
2021/09/27 08:07:30;;;;;;;9.20;7.10;;;;;;;25.05;52.63;96949.45;115500;1197;26086;-87
2021/09/27 08:10:02;;;;;;;10.90;7.80;;;;;;;24.27;51.86;96948.70;115381;1198;26729;-87
2021/09/27 08:12:36;;;;;;;9.20;7.40;;;;;;;23.20;53.25;96954.46;115515;1184;25082;-87
2021/09/27 08:15:10;;;;;;;7.90;7.10;;;;;;;22.42;54.35;96961.55;115494;1197;25432;-86
2021/09/27 08:17:42;;;;;;;10.80;8.90;;;;;;;21.54;55.50;96960.13;115566;1190;26338;-87
2021/09/27 08:20:16;;;;;;;9.50;8.10;;;;;;;20.66;57.14;96960.91;115660;1197;26196;-87
2021/09/27 08:22:46;;;;;;;9.10;8.10;;;;;;;20.18;58.88;96961.61;115610;1197;25823;-87
2021/09/27 08:25:18;;;;;;;9.80;8.10;;;;;;;19.73;59.85;96962.99;115587;1198;25910;-87
2021/09/27 08:27:49;;;;;;;9.90;8.30;;;;;;;19.22;61.40;96965.13;115490;1198;27156;-87
2021/09/27 08:30:23;;;;;;;10.20;8.30;;;;;;;18.75;62.63;96965.23;115470;1198;25227;-87
2021/09/27 08:32:54;;;;;;;10.80;9.10;;;;;;;18.69;64.23;96967.25;115633;1197;34063;-86
2021/09/27 08:35:26;;;;;;;11.30;8.90;;;;;;;19.18;64.92;96965.74;115523;1198;34009;-88
2021/09/27 08:37:57;;;;;;;10.80;9.10;;;;;;;19.15;64.26;96963.45;115413;1198;58602;-87
2021/09/27 08:40:48;;;;;;;11.30;8.30;;;;;;;18.99;64.71;96964.55;115402;1191;27767;-88
2021/09/27 08:43:28;;;;;;;10.50;8.30;;;;;;;18.97;65.10;96964.52;115447;1198;26175;-88
2021/09/27 08:46:03;;;;;;;11.30;8.90;;;;;;;18.74;65.34;96960.22;115537;1198;26587;-88
2021/09/27 08:48:41;;;;;;;10.50;9.30;;;;;;;18.48;66.07;96959.89;115487;1197;26899;-87
2021/09/27 08:51:12;;;;;;;11.10;9.60;;;;;;;18.44;66.76;96957.52;115622;1198;31195;-87
2021/09/27 08:53:48;;;;;;;12.90;11.20;;;;;;;18.34;67.17;96965.05;115492;1198;51869;-87
2021/09/27 08:56:27;;;;;;;11.80;10.10;;;;;;;18.05;67.58;96964.37;115496;1198;48306;-87
2021/09/27 08:59:05;;;;;;;11.50;9.80;;;;;;;17.83;68.87;96963.20;115428;1197;25851;-87
2021/09/27 09:01:45;;;;;;;11.90;9.70;;;;;;;17.94;69.63;96963.50;115512;1192;26373;-87
2021/09/27 09:04:26;;;;;;;12.00;9.60;;;;;;;18.03;69.80;96964.41;115488;1190;30694;-87
2021/09/27 09:07:02;;;;;;;13.40;10.10;;;;;;;17.97;69.64;96962.61;115560;1197;25523;-85
2021/09/27 09:09:44;;;;;;;11.80;9.90;;;;;;;17.64;70.36;96957.42;115612;1197;25490;-86
2021/09/27 09:12:24;;;;;;;11.90;10.30;;;;;;;17.92;71.69;96958.57;115416;1198;27034;-86
2021/09/27 09:15:05;;;;;;;13.50;11.10;;;;;;;18.22;71.32;96957.80;115573;1197;28230;-87
2021/09/27 09:17:37;;;;;;;;;;;;;;;18.06;70.22;96958.88;115538;1197;24627;-87
2021/09/27 09:20:16;;;;;;;15.70;12.30;;;;;;;17.55;70.57;96961.95;115498;1197;27320;-88
2021/09/27 09:22:49;;;;;;;14.10;11.40;;;;;;;17.18;71.82;96961.63;115411;1197;27892;-87
2021/09/27 09:25:27;;;;;;;14.50;11.90;;;;;;;17.20;72.83;96962.74;115575;1197;29088;-86
2021/09/27 09:28:00;;;;;;;13.80;11.10;;;;;;;17.24;73.06;96961.52;115482;1198;28226;-87
2021/09/27 09:30:40;;;;;;;14.60;11.80;;;;;;;17.16;73.45;96959.25;115433;1198;26142;-87
2021/09/27 09:33:31;;;;;;;15.00;12.00;;;;;;;17.09;73.69;96956.19;115560;1190;29159;-87
2021/09/27 09:36:00;;;;;;;;;;;;;;;16.96;74.07;96957.91;115479;1191;27462;-87
2021/09/27 09:38:36;;;;;;;16.00;12.50;;;;;;;16.88;74.63;96957.84;115440;1198;26408;-87
2021/09/27 09:41:08;;;;;;;15.00;11.40;;;;;;;16.78;75.30;96955.90;115490;1197;26593;-86
2021/09/27 09:43:42;;;;;;;12.10;10.50;;;;;;;16.73;76.13;96954.84;115476;1190;26650;-85
2021/09/27 09:46:15;;;;;;;12.40;11.00;;;;;;;16.90;76.26;96951.81;115550;1197;25455;-86
2021/09/27 09:49:07;;;;;;;14.10;11.80;;;;;;;16.93;76.26;96950.66;115484;1198;38574;-86
2021/09/27 09:51:42;;;;;;;14.80;11.70;;;;;;;17.01;76.86;96950.15;115558;1198;24463;-86
2021/09/27 10:05:45;;;;;;;16.20;12.00;;;;;;;18.22;75.35;96946.24;113315;1212;557535;-88
2021/09/27 10:08:22;;;;;;;13.00;10.50;;;;;;;18.44;74.92;96946.62;114603;1203;28782;-89
2021/09/27 10:11:01;;;;;;;13.30;11.00;;;;;;;18.55;75.50;96949.05;115074;1196;27571;-90
2021/09/27 10:13:41;;;;;;;14.90;12.20;;;;;;;18.69;75.01;96946.14;115219;1193;31804;-92
2021/09/27 10:16:17;;;;;;;16.00;12.70;;;;;;;18.56;74.37;96943.13;115369;1199;26225;-90
2021/09/27 10:18:48;;;;;;;14.60;11.70;;;;;;;18.39;74.18;96939.81;115272;1193;33279;-90
2021/09/27 10:21:33;;;;;;;16.50;13.30;;;;;;;18.36;74.61;96939.79;115235;1199;32820;-90
2021/09/27 10:24:18;;;;;;;13.60;11.40;;;;;;;18.40;74.88;96937.40;115238;1198;30129;-91
2021/09/27 10:26:53;;;;;;;16.70;13.30;;;;;;;18.62;74.98;96934.00;115562;1198;33395;-91
2021/09/27 10:29:28;;;;;;;16.80;13.30;;;;;;;18.32;74.26;96932.46;115533;1199;29220;-91
2021/09/27 10:32:03;;;;;;;15.90;13.00;;;;;;;18.20;74.94;96928.88;115182;1199;27089;-91
2021/09/27 10:34:35;;;;;;;15.60;12.70;;;;;;;18.24;75.53;96923.23;115358;1192;28793;-90
2021/09/27 10:37:11;;;;;;;16.70;13.30;;;;;;;18.27;75.84;96924.80;115567;1199;30287;-90
2021/09/27 10:39:45;;;;;;;16.90;13.20;;;;;;;18.25;75.93;96922.05;115624;1191;28639;-90
2021/09/27 10:42:22;;;;;;;16.30;12.10;;;;;;;18.23;76.21;96922.67;115448;1199;28082;-90
2021/09/27 10:44:55;;;;;;;16.10;12.70;;;;;;;18.31;77.19;96918.98;115330;1198;36966;-89
2021/09/27 10:47:30;;;;;;;15.50;12.80;;;;;;;18.53;77.34;96916.45;115213;1199;31020;-90
2021/09/27 10:50:11;;;;;;;15.80;13.00;;;;;;;18.53;77.00;96913.16;115292;1199;29476;-90
2021/09/27 10:52:55;;;;;;;14.80;12.50;;;;;;;18.58;76.75;96915.11;115202;1197;27271;-89
2021/09/27 10:55:45;;;;;;;14.10;12.40;;;;;;;18.59;77.12;96914.16;115330;1199;27947;-90
2021/09/27 10:58:35;;;;;;;16.40;12.80;;;;;;;18.64;77.16;96911.52;115323;1198;26578;-89
2021/09/27 11:01:08;;;;;;;16.00;12.60;;;;;;;18.72;77.78;96913.78;115408;1199;26322;-90
2021/09/27 11:03:46;;;;;;;16.60;13.50;;;;;;;18.83;77.65;96911.77;115627;1198;26771;-90
2021/09/27 11:06:32;;;;;;;17.00;13.50;;;;;;;18.82;77.45;96908.83;115549;1198;25704;-90
2021/09/27 11:09:12;;;;;;;18.50;14.30;;;;;;;18.90;77.71;96910.16;115504;1199;27862;-90
2021/09/27 11:11:56;;;;;;;19.40;14.60;;;;;;;18.88;77.43;96906.85;115427;1199;25895;-89
2021/09/27 11:14:42;;;;;;;16.60;14.00;;;;;;;18.94;78.24;96905.52;115246;1199;29186;-90
2021/09/27 11:17:32;;;;;;;16.70;13.30;;;;;;;19.12;78.58;96899.86;115275;1199;25097;-91
2021/09/27 11:20:23;;;;;;;16.60;12.50;;;;;;;19.30;78.71;96902.05;115205;1199;27098;-90
2021/09/27 11:23:23;;;;;;;13.50;10.90;;;;;;;19.45;78.37;96900.55;115339;1192;26496;-90
2021/09/27 11:26:26;;;;;;;12.80;10.40;;;;;;;19.52;78.07;96895.96;115449;1198;27015;-90
2021/09/27 11:29:20;;;;;;;14.60;11.20;;;;;;;19.72;78.34;96892.03;115438;1198;31316;-89
2021/09/27 11:32:34;;;;;;;11.50;9.90;;;;;;;19.90;78.39;96890.29;115361;1198;30452;-91
2021/09/27 11:35:11;;;;;;;12.80;9.30;;;;;;;20.04;77.56;96884.54;115170;1200;27617;-90
2021/09/27 11:38:27;;;;;;;12.20;9.30;;;;;;;20.08;77.45;96884.39;115498;1198;31348;-90
2021/09/27 11:41:18;;;;;;;12.00;8.80;;;;;;;20.31;78.03;96879.45;115427;1192;29129;-90
2021/09/27 11:43:59;;;;;;;12.20;8.40;;;;;;;20.55;77.74;96882.58;115383;1192;27425;-91
2021/09/27 11:46:46;;;;;;;10.50;8.30;;;;;;;20.72;77.32;96878.21;115466;1198;27635;-90
2021/09/27 11:50:00;;;;;;;9.60;7.60;;;;;;;20.86;76.77;96873.23;115503;1193;27699;-91
2021/09/27 11:52:49;;;;;;;10.30;6.90;;;;;;;21.05;76.78;96871.58;115468;1199;28230;-90
2021/09/27 11:55:28;;;;;;;9.20;6.80;;;;;;;21.17;76.08;96870.04;115504;1198;28928;-91
2021/09/27 11:58:08;;;;;;;10.60;7.90;;;;;;;21.22;74.98;96869.25;115513;1199;28472;-90
2021/09/27 12:00:47;;;;;;;9.50;7.30;;;;;;;21.27;75.30;96866.95;115466;1199;29466;-91
2021/09/27 12:03:26;;;;;;;9.50;7.30;;;;;;;21.43;75.13;96865.41;115462;1193;29074;-88
2021/09/27 12:06:08;;;;;;;9.80;8.20;;;;;;;21.43;73.33;96864.63;115492;1192;28811;-92
2021/09/27 12:08:46;;;;;;;9.80;7.00;;;;;;;21.32;73.43;96859.80;115484;1198;27237;-91
2021/09/27 12:11:18;;;;;;;10.10;6.90;;;;;;;21.46;74.04;96857.88;115488;1198;27622;-91
2021/09/27 12:13:55;;;;;;;9.50;6.20;;;;;;;21.59;73.67;96859.56;115399;1198;31207;-91
2021/09/27 12:16:30;;;;;;;11.70;6.40;;;;;;;21.79;73.87;96863.48;115438;1193;28277;-91
2021/09/27 12:19:02;;;;;;;8.30;6.00;;;;;;;21.99;73.67;96864.01;115534;1198;28979;-93
2021/09/27 12:21:40;;;;;;;9.20;6.70;;;;;;;22.13;73.20;96854.64;116605;1198;26505;-92
2021/09/27 12:24:14;;;;;;;8.60;6.90;;;;;;;22.24;72.44;96855.38;117103;1193;32438;-91
2021/09/27 12:26:50;;;;;;;9.80;6.30;;;;;;;22.33;71.82;96853.19;116924;1199;26656;-91
2021/09/27 12:29:24;;;;;;;8.60;6.40;;;;;;;22.30;71.59;96848.58;115362;1193;30815;-91